Time;durP1;ratioP1;P1;durP2;ratioP2;P2;SDS_P1;SDS_P2;PMS_P1;PMS_P2;Temp;Humidity;BMP_temperature;BMP_pressure;BME280_temperature;BME280_humidity;BME280_pressure;Samples;Min_cycle;Max_cycle;Signal;HPM_P1;HPM_P2
2022/01/31 00:02:07;;;;;;;8.97;2.43;;;2.50;99.90;;;;;;5023788;28;20264;-52
2022/01/31 00:04:32;;;;;;;7.50;3.20;;;2.40;99.90;;;;;;5024720;28;20194;-51
2022/01/31 00:06:58;;;;;;;9.07;3.13;;;2.30;99.90;;;;;;5029636;28;20183;-50
2022/01/31 00:09:24;;;;;;;8.57;2.97;;;2.30;99.90;;;;;;5026887;28;20630;-53
2022/01/31 00:11:58;;;;;;;9.90;2.47;;;2.30;99.90;;;;;;5025172;28;20179;-53
2022/01/31 00:16:55;;;;;;;8.07;3.00;;;2.30;99.90;;;;;;5027317;28;20225;-50
2022/01/31 00:19:21;;;;;;;10.57;3.30;;;2.20;99.90;;;;;;5026407;28;20200;-53
2022/01/31 00:21:46;;;;;;;8.97;2.87;;;2.30;99.90;;;;;;5007700;28;20212;-52
2022/01/31 00:24:12;;;;;;;9.43;3.53;;;2.30;99.90;;;;;;5024272;28;20596;-52
2022/01/31 00:26:37;;;;;;;10.80;3.13;;;2.30;99.90;;;;;;5013043;28;20184;-50
2022/01/31 00:29:03;;;;;;;7.37;2.67;;;2.20;99.90;;;;;;4995393;28;20199;-52
2022/01/31 00:31:29;;;;;;;8.80;2.83;;;2.20;99.90;;;;;;5066800;23;20724;-57
2022/01/31 00:33:54;;;;;;;8.97;2.70;;;2.20;99.90;;;;;;5008765;28;20515;-56
2022/01/31 00:36:20;;;;;;;7.43;2.83;;;2.10;99.90;;;;;;5013208;28;20315;-57
2022/01/31 00:38:45;;;;;;;13.47;3.13;;;2.10;99.90;;;;;;5012944;28;20547;-60
2022/01/31 00:41:11;;;;;;;7.53;2.90;;;2.00;99.90;;;;;;5013540;28;20192;-54
2022/01/31 00:43:37;;;;;;;6.87;2.60;;;2.00;99.90;;;;;;5014046;28;20196;-55
2022/01/31 00:46:10;;;;;;;7.80;2.63;;;2.00;99.90;;;;;;5013394;28;20311;-54
2022/01/31 00:48:42;;;;;;;7.53;2.70;;;1.90;99.90;;;;;;5013551;28;20665;-59
2022/01/31 00:51:08;;;;;;;6.73;2.67;;;1.90;99.90;;;;;;5013700;28;20557;-57
2022/01/31 00:53:33;;;;;;;11.33;3.30;;;1.90;99.90;;;;;;5013835;28;20184;-56
2022/01/31 00:55:59;;;;;;;6.33;2.30;;;1.90;99.90;;;;;;5013162;28;20589;-55
2022/01/31 00:58:24;;;;;;;10.27;3.10;;;1.90;99.90;;;;;;5013812;28;20581;-57
2022/01/31 01:00:50;;;;;;;7.87;2.33;;;2.00;99.90;;;;;;5013313;28;20608;-54
2022/01/31 01:03:15;;;;;;;10.70;3.20;;;2.10;99.90;;;;;;5013611;28;20169;-55
2022/01/31 01:05:41;;;;;;;5.90;2.90;;;2.20;99.90;;;;;;5012916;28;20238;-54
2022/01/31 01:08:06;;;;;;;6.70;2.40;;;2.20;99.90;;;;;;5013325;28;20181;-57
2022/01/31 01:10:32;;;;;;;10.33;3.03;;;2.10;99.90;;;;;;5013386;28;20200;-54
2022/01/31 01:12:58;;;;;;;7.50;2.63;;;2.10;99.90;;;;;;5013311;28;20173;-57
2022/01/31 01:15:24;;;;;;;8.80;2.90;;;2.20;99.90;;;;;;5013043;28;20203;-58
2022/01/31 01:17:49;;;;;;;7.90;2.90;;;2.20;99.90;;;;;;5013370;28;20645;-55
2022/01/31 01:20:15;;;;;;;10.33;2.60;;;2.30;99.90;;;;;;5013231;28;20232;-62
2022/01/31 01:22:42;;;;;;;8.63;2.70;;;2.30;99.90;;;;;;5013241;28;20576;-57
2022/01/31 01:25:09;;;;;;;7.33;2.60;;;2.20;99.90;;;;;;5012947;28;20169;-55
2022/01/31 01:27:34;;;;;;;10.13;2.77;;;2.30;99.90;;;;;;5013091;28;20247;-56
2022/01/31 01:30:00;;;;;;;8.23;2.60;;;2.30;99.90;;;;;;5012896;28;20283;-58
2022/01/31 01:32:29;;;;;;;7.93;2.47;;;2.40;99.90;;;;;;5013225;28;20176;-59
2022/01/31 01:34:59;;;;;;;7.47;3.13;;;2.50;99.90;;;;;;5012497;28;20250;-58
2022/01/31 01:37:24;;;;;;;4.87;2.30;;;2.50;99.90;;;;;;5013168;28;20184;-55
2022/01/31 01:39:50;;;;;;;6.67;2.20;;;2.40;99.90;;;;;;5012138;28;20246;-54
2022/01/31 01:42:15;;;;;;;9.67;2.97;;;2.40;99.90;;;;;;5012939;28;20255;-57
2022/01/31 01:44:47;;;;;;;6.00;2.50;;;2.40;99.90;;;;;;5012370;28;20184;-58
2022/01/31 01:47:18;;;;;;;8.53;2.73;;;2.40;99.90;;;;;;5012943;28;20713;-54
2022/01/31 01:49:45;;;;;;;6.90;2.60;;;2.20;99.90;;;;;;5012084;28;20187;-58
2022/01/31 01:52:11;;;;;;;7.60;2.70;;;2.10;99.90;;;;;;5012702;28;20187;-60
2022/01/31 01:54:36;;;;;;;8.93;2.90;;;2.10;99.90;;;;;;5012040;28;20204;-59
2022/01/31 01:57:03;;;;;;;7.67;3.10;;;2.00;99.90;;;;;;5012556;28;20547;-55
2022/01/31 01:59:32;;;;;;;7.17;2.43;;;2.00;99.90;;;;;;5012501;28;20231;-60
2022/01/31 02:01:58;;;;;;;8.27;2.80;;;1.90;99.90;;;;;;5012651;28;20247;-56
2022/01/31 02:04:25;;;;;;;7.43;2.87;;;1.90;99.90;;;;;;5012488;28;20237;-56
2022/01/31 02:06:51;;;;;;;7.97;2.93;;;1.80;99.90;;;;;;5012371;28;20172;-57
2022/01/31 02:09:21;;;;;;;5.87;2.53;;;1.80;99.90;;;;;;5012506;28;20183;-57
2022/01/31 02:11:47;;;;;;;10.23;3.00;;;1.80;99.90;;;;;;5012169;28;20751;-56
2022/01/31 02:14:13;;;;;;;12.57;2.80;;;1.90;99.90;;;;;;5012410;28;20200;-58
2022/01/31 02:16:38;;;;;;;8.23;2.97;;;2.00;99.90;;;;;;5011933;28;20176;-58
2022/01/31 02:19:04;;;;;;;9.73;2.63;;;2.10;99.90;;;;;;5012420;28;20168;-59
2022/01/31 02:21:30;;;;;;;7.67;2.47;;;2.10;99.90;;;;;;5012276;28;20653;-58
2022/01/31 02:23:56;;;;;;;12.53;3.47;;;2.20;99.90;;;;;;5012262;28;20165;-58
2022/01/31 02:26:22;;;;;;;7.87;3.17;;;2.20;99.90;;;;;;5011903;28;20179;-56
2022/01/31 02:28:47;;;;;;;9.27;2.60;;;2.20;99.90;;;;;;5011986;28;20601;-54
2022/01/31 02:31:13;;;;;;;8.80;2.70;;;2.10;99.90;;;;;;5012044;28;20215;-60
2022/01/31 02:33:38;;;;;;;5.57;2.50;;;2.00;99.90;;;;;;5012077;28;20263;-58
2022/01/31 02:36:05;;;;;;;7.00;2.70;;;1.90;99.90;;;;;;5011730;28;20211;-59
2022/01/31 02:38:31;;;;;;;7.13;3.00;;;1.80;99.90;;;;;;5012081;28;20311;-58
2022/01/31 02:40:57;;;;;;;7.67;2.80;;;1.70;99.90;;;;;;5011369;28;20283;-58
2022/01/31 02:43:28;;;;;;;7.10;2.53;;;1.70;99.90;;;;;;5011901;28;20255;-60
2022/01/31 02:45:53;;;;;;;5.80;2.60;;;1.80;99.90;;;;;;5011813;28;20215;-58
2022/01/31 02:48:22;;;;;;;8.90;3.20;;;1.80;99.90;;;;;;5011544;28;20184;-58
2022/01/31 02:50:48;;;;;;;9.00;2.80;;;1.80;99.90;;;;;;5011991;28;20279;-56
2022/01/31 02:53:22;;;;;;;5.47;2.50;;;1.90;99.90;;;;;;5012069;28;20196;-60
2022/01/31 02:55:49;;;;;;;7.60;2.73;;;2.00;99.90;;;;;;5011617;28;20568;-58
2022/01/31 02:58:16;;;;;;;8.23;2.90;;;2.00;99.90;;;;;;5011974;28;20227;-61
2022/01/31 03:00:42;;;;;;;6.57;2.80;;;2.00;99.90;;;;;;5012973;28;20263;-60
2022/01/31 03:03:08;;;;;;;5.10;2.43;;;2.00;99.90;;;;;;5015893;28;20177;-60
2022/01/31 03:05:34;;;;;;;5.40;2.83;;;2.00;99.90;;;;;;5015519;28;20302;-58
2022/01/31 03:08:00;;;;;;;8.10;2.80;;;2.00;99.90;;;;;;5015266;28;20650;-58
2022/01/31 03:10:26;;;;;;;6.73;2.83;;;2.00;99.90;;;;;;5014716;28;20246;-57
2022/01/31 03:12:52;;;;;;;8.57;3.10;;;1.90;99.90;;;;;;5015861;28;20183;-57
2022/01/31 03:15:18;;;;;;;7.80;2.83;;;2.10;99.90;;;;;;5015662;28;20200;-59
2022/01/31 03:17:47;;;;;;;8.13;2.90;;;2.10;99.90;;;;;;5015643;28;20173;-57
2022/01/31 03:20:15;;;;;;;7.07;3.10;;;2.20;99.90;;;;;;5015311;28;20191;-56
2022/01/31 03:22:41;;;;;;;6.67;3.03;;;2.30;99.90;;;;;;5015629;28;20173;-56
2022/01/31 03:25:07;;;;;;;9.30;3.53;;;2.40;99.90;;;;;;5015367;28;20202;-57
2022/01/31 03:27:32;;;;;;;5.10;2.80;;;2.40;99.90;;;;;;5015452;28;20185;-58
2022/01/31 03:29:58;;;;;;;7.17;3.27;;;2.30;99.90;;;;;;5015124;28;20282;-56
2022/01/31 03:32:23;;;;;;;6.03;2.87;;;2.30;99.90;;;;;;5015285;28;20184;-58
2022/01/31 03:34:49;;;;;;;10.40;3.70;;;2.30;99.90;;;;;;5015189;28;20251;-58
2022/01/31 03:37:15;;;;;;;10.53;3.33;;;2.40;99.90;;;;;;5015215;28;20168;-58
2022/01/31 03:39:40;;;;;;;6.10;3.00;;;2.40;99.90;;;;;;5014999;28;20180;-54
2022/01/31 03:42:06;;;;;;;5.07;3.13;;;2.50;99.90;;;;;;5015194;28;20172;-55
2022/01/31 03:44:32;;;;;;;7.13;3.00;;;2.50;99.90;;;;;;5015145;28;20263;-59
2022/01/31 03:46:58;;;;;;;7.33;3.07;;;2.60;99.90;;;;;;5015012;28;20203;-53
2022/01/31 03:49:24;;;;;;;7.57;2.90;;;2.60;99.90;;;;;;5014872;28;20304;-57
2022/01/31 03:51:49;;;;;;;10.20;3.10;;;2.60;99.90;;;;;;5014964;28;20339;-56
2022/01/31 03:54:15;;;;;;;7.60;3.30;;;2.60;99.90;;;;;;5014933;28;20197;-55
2022/01/31 03:56:41;;;;;;;10.17;3.53;;;2.50;99.90;;;;;;5014663;28;20172;-56
2022/01/31 03:59:07;;;;;;;7.73;3.27;;;2.40;99.90;;;;;;5014845;28;20256;-59
2022/01/31 04:01:33;;;;;;;7.10;3.33;;;2.40;99.90;;;;;;5014860;28;20201;-57
2022/01/31 04:03:59;;;;;;;8.70;2.73;;;2.40;99.90;;;;;;5014780;28;20180;-57
2022/01/31 04:06:24;;;;;;;7.80;3.03;;;2.40;99.90;;;;;;5014650;28;20287;-58
2022/01/31 04:08:50;;;;;;;7.60;3.10;;;2.50;99.90;;;;;;5014548;28;20173;-56
2022/01/31 04:11:16;;;;;;;7.70;3.23;;;2.50;99.90;;;;;;5014594;28;20760;-55
2022/01/31 04:13:42;;;;;;;7.77;2.97;;;2.60;99.90;;;;;;5013276;28;20260;-56
2022/01/31 04:16:07;;;;;;;8.73;3.67;;;2.70;99.90;;;;;;5014415;28;20208;-55
2022/01/31 04:18:33;;;;;;;6.60;3.13;;;2.70;99.90;;;;;;5014374;28;20180;-55
2022/01/31 04:21:00;;;;;;;11.17;3.70;;;2.70;99.90;;;;;;5014376;28;20200;-57
2022/01/31 04:23:27;;;;;;;8.20;3.30;;;2.80;99.90;;;;;;5014418;28;20169;-56
2022/01/31 04:26:01;;;;;;;7.20;3.13;;;2.90;99.90;;;;;;5014304;28;20173;-56
2022/01/31 04:28:32;;;;;;;6.83;3.17;;;2.80;99.90;;;;;;5014120;28;20645;-58
2022/01/31 04:31:14;;;;;;;9.50;3.63;;;2.80;99.90;;;;;;5014144;28;20239;-56
2022/01/31 04:33:40;;;;;;;9.60;3.57;;;2.80;99.90;;;;;;5014200;28;20180;-54
2022/01/31 04:36:06;;;;;;;8.50;3.23;;;2.90;99.90;;;;;;5014118;28;20215;-59
2022/01/31 04:38:33;;;;;;;7.80;3.33;;;2.90;99.90;;;;;;5013855;28;20180;-56
2022/01/31 04:40:59;;;;;;;8.77;3.40;;;3.00;99.90;;;;;;5014144;28;20200;-58
2022/01/31 04:43:25;;;;;;;6.77;3.37;;;3.00;99.90;;;;;;5014188;28;20232;-57
2022/01/31 04:45:51;;;;;;;8.67;3.73;;;3.00;99.90;;;;;;5013850;28;20513;-57
2022/01/31 04:48:19;;;;;;;6.60;2.90;;;2.80;99.90;;;;;;5013713;28;20185;-58
2022/01/31 04:50:46;;;;;;;7.73;3.57;;;2.60;99.90;;;;;;5013910;28;20656;-56
2022/01/31 04:53:13;;;;;;;7.00;3.37;;;2.60;99.90;;;;;;5014009;28;20179;-59
2022/01/31 04:55:39;;;;;;;10.87;3.30;;;2.70;99.90;;;;;;5013609;28;20211;-59
2022/01/31 04:58:05;;;;;;;8.93;3.30;;;2.80;99.90;;;;;;5013553;28;20169;-61
2022/01/31 05:00:31;;;;;;;7.77;3.53;;;2.80;99.90;;;;;;5013701;28;20267;-57
2022/01/31 05:02:57;;;;;;;12.27;4.03;;;2.90;99.90;;;;;;5013479;28;20737;-61
2022/01/31 05:05:23;;;;;;;8.10;3.60;;;2.90;99.90;;;;;;5013227;28;20177;-59
2022/01/31 05:07:51;;;;;;;8.00;4.60;;;3.00;99.90;;;;;;5013564;28;20179;-60
2022/01/31 05:10:17;;;;;;;8.93;4.20;;;3.10;99.90;;;;;;5013324;28;20199;-59
2022/01/31 05:12:42;;;;;;;11.70;4.37;;;3.10;99.90;;;;;;5013614;28;20646;-57
2022/01/31 05:15:08;;;;;;;9.83;4.33;;;3.00;99.90;;;;;;5013202;28;20200;-60
2022/01/31 05:17:34;;;;;;;8.87;3.70;;;2.80;99.90;;;;;;5013336;28;20177;-58
2022/01/31 05:19:59;;;;;;;7.80;3.50;;;2.70;99.90;;;;;;5013168;28;20243;-57
2022/01/31 05:22:25;;;;;;;9.07;4.20;;;2.60;99.90;;;;;;5013341;28;20172;-59
2022/01/31 05:24:51;;;;;;;7.80;4.10;;;2.70;99.90;;;;;;5012741;28;20176;-58
2022/01/31 05:27:16;;;;;;;7.57;3.60;;;2.70;99.90;;;;;;5013160;28;20177;-60
2022/01/31 05:29:42;;;;;;;5.43;3.20;;;2.60;99.90;;;;;;5012456;28;20192;-58
2022/01/31 05:32:07;;;;;;;8.70;3.60;;;2.60;99.90;;;;;;5013105;28;20180;-58
2022/01/31 05:34:33;;;;;;;10.27;4.07;;;2.60;99.90;;;;;;5012960;28;20216;-60
2022/01/31 05:36:59;;;;;;;8.53;3.63;;;2.60;99.90;;;;;;5012931;28;20180;-58
2022/01/31 05:39:25;;;;;;;6.33;3.07;;;2.30;99.90;;;;;;5012929;28;20201;-58
2022/01/31 05:41:55;;;;;;;7.27;3.43;;;2.10;99.90;;;;;;5012880;28;20190;-59
2022/01/31 05:44:21;;;;;;;7.70;3.40;;;2.10;99.90;;;;;;5012949;28;20642;-58
2022/01/31 05:46:47;;;;;;;8.67;4.23;;;2.10;99.90;;;;;;5012872;28;20242;-61
2022/01/31 05:49:13;;;;;;;9.73;3.90;;;2.10;99.90;;;;;;5012581;28;20180;-58
2022/01/31 05:52:04;;;;;;;5.47;3.03;;;2.10;99.90;;;;;;5012794;28;20723;-59
2022/01/31 05:54:30;;;;;;;9.20;3.83;;;2.20;99.90;;;;;;5012724;28;20196;-62
2022/01/31 05:56:56;;;;;;;9.90;3.90;;;2.20;99.90;;;;;;5012603;28;20183;-60
2022/01/31 05:59:22;;;;;;;7.07;3.70;;;2.20;99.90;;;;;;5012905;28;20256;-58
2022/01/31 06:01:47;;;;;;;9.63;4.07;;;2.20;99.90;;;;;;5013102;28;20199;-58
2022/01/31 06:04:13;;;;;;;8.13;3.90;;;2.20;99.90;;;;;;5012779;28;20180;-56
2022/01/31 06:06:39;;;;;;;11.30;3.80;;;2.20;99.90;;;;;;4994795;28;20184;-56
2022/01/31 06:09:05;;;;;;;9.77;3.57;;;2.30;99.90;;;;;;5012185;28;20242;-54
2022/01/31 06:11:33;;;;;;;8.53;3.40;;;2.30;99.90;;;;;;5012418;28;20207;-55
2022/01/31 06:14:00;;;;;;;10.73;4.10;;;2.40;99.90;;;;;;5012279;28;20169;-54
2022/01/31 06:16:26;;;;;;;7.40;3.80;;;2.40;99.90;;;;;;5012255;28;20250;-58
2022/01/31 06:18:52;;;;;;;8.83;3.80;;;2.30;99.90;;;;;;5012189;28;20192;-59
2022/01/31 06:21:17;;;;;;;6.53;3.50;;;2.50;99.90;;;;;;5012372;28;20192;-54
2022/01/31 06:23:43;;;;;;;7.30;3.30;;;2.60;99.90;;;;;;5012422;28;20181;-55
2022/01/31 06:26:09;;;;;;;8.80;3.93;;;2.70;99.90;;;;;;5012138;28;20202;-58
2022/01/31 06:28:35;;;;;;;8.97;3.90;;;2.80;99.90;;;;;;5012118;28;20537;-55
2022/01/31 06:31:01;;;;;;;7.90;3.50;;;2.90;99.90;;;;;;5013337;28;20282;-56
2022/01/31 06:33:26;;;;;;;10.50;3.93;;;2.90;99.90;;;;;;5012364;28;20645;-59
2022/01/31 06:35:52;;;;;;;11.47;3.97;;;2.90;99.90;;;;;;5011225;28;20207;-55
2022/01/31 06:38:18;;;;;;;11.07;3.83;;;2.80;99.90;;;;;;5011958;28;20709;-57
2022/01/31 06:40:43;;;;;;;10.40;4.33;;;2.70;99.90;;;;;;5011889;28;20192;-59
2022/01/31 06:43:09;;;;;;;8.90;3.80;;;2.70;99.90;;;;;;5012058;28;20250;-56
2022/01/31 06:45:35;;;;;;;10.23;4.20;;;2.80;99.90;;;;;;5011888;28;20183;-54
2022/01/31 06:48:00;;;;;;;6.50;3.57;;;3.00;99.90;;;;;;5011751;28;20219;-54
2022/01/31 06:50:26;;;;;;;9.37;3.83;;;3.10;99.90;;;;;;5011844;28;20577;-59
2022/01/31 06:52:55;;;;;;;7.60;3.30;;;3.20;99.90;;;;;;5011820;28;20255;-56
2022/01/31 06:55:22;;;;;;;6.73;3.87;;;3.30;99.90;;;;;;5011615;28;20196;-54
2022/01/31 06:57:49;;;;;;;7.73;4.00;;;3.50;99.90;;;;;;5011863;28;20184;-55
2022/01/31 07:00:17;;;;;;;9.77;4.00;;;3.60;99.90;;;;;;5011580;28;20557;-57
2022/01/31 07:02:43;;;;;;;7.83;3.90;;;3.70;99.90;;;;;;5011732;28;20192;-60
2022/01/31 07:05:09;;;;;;;9.63;4.10;;;3.70;99.90;;;;;;5011709;28;20262;-59
2022/01/31 07:07:34;;;;;;;9.00;4.07;;;3.80;99.90;;;;;;5011698;28;20184;-53
2022/01/31 07:10:03;;;;;;;10.20;4.13;;;3.80;99.90;;;;;;5011405;28;20219;-58
2022/01/31 07:12:32;;;;;;;12.10;3.97;;;3.90;99.90;;;;;;5011718;28;20235;-56
2022/01/31 07:14:59;;;;;;;8.60;3.70;;;3.90;99.90;;;;;;5011423;28;20196;-57
2022/01/31 07:17:24;;;;;;;10.37;3.83;;;3.80;99.90;;;;;;5011909;28;20173;-54
2022/01/31 07:19:50;;;;;;;9.73;4.30;;;3.50;99.90;;;;;;5011483;28;20192;-59
2022/01/31 07:22:17;;;;;;;6.63;3.43;;;3.20;99.90;;;;;;5011677;28;20165;-55
2022/01/31 07:24:46;;;;;;;10.40;3.60;;;3.00;99.90;;;;;;5011524;28;20704;-57
2022/01/31 07:27:12;;;;;;;7.47;3.87;;;2.80;99.90;;;;;;5011681;28;20200;-60
2022/01/31 07:29:39;;;;;;;11.33;4.63;;;2.70;99.90;;;;;;5011646;28;20244;-55
2022/01/31 07:32:08;;;;;;;7.93;4.00;;;2.70;99.90;;;;;;5011719;28;20267;-57
2022/01/31 07:34:34;;;;;;;9.30;4.53;;;2.70;99.90;;;;;;5011489;28;20242;-56
2022/01/31 07:36:59;;;;;;;9.93;4.10;;;2.90;99.90;;;;;;5011511;28;20181;-61
2022/01/31 07:39:26;;;;;;;9.17;4.30;;;3.00;99.90;;;;;;5011312;28;20306;-58
2022/01/31 07:41:51;;;;;;;12.10;4.07;;;3.20;99.90;;;;;;5011531;28;20189;-57
2022/01/31 07:44:17;;;;;;;13.17;4.40;;;3.20;99.90;;;;;;5011562;28;20208;-56
2022/01/31 07:46:43;;;;;;;7.63;4.17;;;3.20;99.90;;;;;;5012580;28;20538;-59
2022/01/31 07:49:08;;;;;;;10.90;4.30;;;3.20;99.90;;;;;;5014933;28;20204;-53
2022/01/31 07:51:38;;;;;;;11.37;4.30;;;3.30;99.90;;;;;;5014831;28;20254;-58
2022/01/31 07:54:04;;;;;;;9.87;4.03;;;3.30;99.90;;;;;;5015255;28;20173;-60
2022/01/31 07:56:30;;;;;;;7.60;4.40;;;3.30;99.90;;;;;;5014885;28;20184;-58
2022/01/31 07:58:55;;;;;;;11.37;4.10;;;3.10;99.90;;;;;;5014805;28;20172;-58
2022/01/31 08:01:21;;;;;;;7.57;4.03;;;3.00;99.90;;;;;;5014851;28;20247;-59
2022/01/31 08:03:47;;;;;;;9.93;4.57;;;2.70;99.90;;;;;;5014797;28;20165;-58
2022/01/31 08:06:13;;;;;;;11.50;4.23;;;2.60;99.90;;;;;;5014678;28;20169;-60
2022/01/31 08:08:40;;;;;;;12.77;4.40;;;2.50;99.90;;;;;;5014599;28;20668;-57
2022/01/31 08:11:06;;;;;;;7.93;3.70;;;2.40;99.90;;;;;;5014691;28;20184;-56
2022/01/31 08:13:33;;;;;;;8.03;4.10;;;2.40;99.90;;;;;;5014729;28;20205;-57
2022/01/31 08:18:35;;;;;;;11.67;4.40;;;2.50;99.90;;;;;;5000429;28;20188;-56
2022/01/31 08:21:03;;;;;;;14.17;4.43;;;2.50;99.90;;;;;;4994882;28;20197;-59
2022/01/31 08:23:29;;;;;;;10.47;4.67;;;2.50;99.90;;;;;;4995107;28;20173;-58
2022/01/31 08:25:57;;;;;;;9.13;3.73;;;2.50;99.90;;;;;;4994778;28;20173;-58
2022/01/31 08:28:31;;;;;;;13.70;4.57;;;2.50;99.90;;;;;;4994395;28;20177;-55
2022/01/31 08:31:05;;;;;;;8.13;3.77;;;2.60;99.90;;;;;;4994678;28;20582;-59
2022/01/31 08:33:43;;;;;;;9.67;4.20;;;2.60;99.90;;;;;;4994801;28;20164;-59
2022/01/31 08:36:09;;;;;;;11.13;4.43;;;2.60;99.90;;;;;;4994484;28;20670;-57
2022/01/31 08:38:36;;;;;;;9.90;4.60;;;2.60;99.90;;;;;;4994462;28;20635;-59
2022/01/31 08:41:02;;;;;;;11.33;3.80;;;2.50;99.90;;;;;;4994485;28;20189;-59
2022/01/31 08:43:28;;;;;;;10.63;4.80;;;2.50;99.90;;;;;;4994511;28;20173;-59
2022/01/31 08:45:56;;;;;;;10.60;4.10;;;2.50;99.90;;;;;;4994404;28;20188;-60
2022/01/31 08:48:23;;;;;;;9.97;4.43;;;2.50;99.90;;;;;;4994462;28;20177;-57
2022/01/31 08:50:49;;;;;;;9.63;4.73;;;2.50;99.90;;;;;;4994594;28;20275;-58
2022/01/31 08:53:14;;;;;;;13.37;5.00;;;2.50;99.90;;;;;;4994521;28;20257;-57
2022/01/31 08:55:48;;;;;;;12.20;4.93;;;2.60;99.90;;;;;;4994252;28;20201;-60
2022/01/31 08:58:14;;;;;;;17.47;5.37;;;2.70;99.90;;;;;;4993187;28;20170;-57
2022/01/31 09:00:40;;;;;;;12.33;4.57;;;2.60;99.90;;;;;;4994210;28;20212;-57
2022/01/31 09:05:38;;;;;;;12.10;4.80;;;2.60;99.90;;;;;;4993848;28;20232;-56
2022/01/31 09:08:04;;;;;;;10.60;4.87;;;2.60;99.90;;;;;;4993858;28;20173;-54
2022/01/31 09:10:29;;;;;;;13.17;5.10;;;2.70;99.90;;;;;;4976548;28;20573;-58
2022/01/31 09:12:55;;;;;;;12.07;5.00;;;2.70;99.90;;;;;;4994149;28;20231;-58
2022/01/31 09:15:21;;;;;;;9.17;4.87;;;2.80;99.90;;;;;;5003369;28;20608;-53
2022/01/31 09:17:47;;;;;;;7.67;4.67;;;2.90;99.90;;;;;;5004985;28;20680;-55
2022/01/31 09:20:12;;;;;;;12.87;5.27;;;2.90;99.90;;;;;;5020548;28;20223;-52
2022/01/31 09:22:38;;;;;;;15.40;5.53;;;2.60;99.90;;;;;;5023890;28;20183;-55
2022/01/31 09:25:04;;;;;;;14.93;5.90;;;2.50;99.90;;;;;;5024375;28;20176;-56
2022/01/31 09:27:30;;;;;;;11.17;5.40;;;2.30;99.90;;;;;;5017027;28;20245;-58
2022/01/31 09:29:56;;;;;;;13.27;5.73;;;2.20;99.90;;;;;;5014581;28;20231;-55
2022/01/31 09:32:24;;;;;;;12.13;5.33;;;2.10;99.90;;;;;;5018487;28;20181;-55
2022/01/31 09:34:50;;;;;;;12.17;5.67;;;2.00;99.90;;;;;;5027025;28;20196;-53
2022/01/31 09:37:16;;;;;;;9.27;5.80;;;1.90;99.90;;;;;;5013999;28;20238;-57
2022/01/31 09:39:46;;;;;;;13.77;6.20;;;1.90;99.90;;;;;;5012260;28;20196;-55
2022/01/31 09:42:14;;;;;;;12.97;5.87;;;1.90;99.90;;;;;;5005457;28;20549;-58
2022/01/31 09:48:31;;;;;;;13.50;6.13;;;2.00;99.90;;;;;;5007599;28;20601;-54
2022/01/31 09:50:11;;;;;;;11.40;5.80;;;2.10;99.90;;;;;;5003358;28;20284;-56
2022/01/31 09:52:36;;;;;;;13.33;6.00;;;2.10;99.90;;;;;;5003626;28;20196;-54
2022/01/31 09:55:02;;;;;;;12.33;5.97;;;2.10;99.90;;;;;;5004800;28;20658;-58
2022/01/31 09:57:28;;;;;;;10.77;5.47;;;2.10;99.90;;;;;;5007417;28;20164;-58
2022/01/31 09:59:53;;;;;;;14.77;6.43;;;2.20;99.90;;;;;;5003049;28;20196;-53
2022/01/31 10:02:19;;;;;;;9.33;5.90;;;2.20;99.90;;;;;;5005312;28;20180;-52
2022/01/31 10:04:48;;;;;;;11.77;5.90;;;2.20;99.90;;;;;;5000254;28;20231;-58
2022/01/31 10:07:14;;;;;;;10.40;6.43;;;2.30;99.90;;;;;;5000714;28;20227;-57
2022/01/31 10:09:43;;;;;;;10.77;6.57;;;2.20;99.90;;;;;;4992674;28;20172;-54
2022/01/31 10:12:29;;;;;;;10.50;6.87;;;2.20;99.90;;;;;;4992969;28;20536;-57
2022/01/31 10:17:41;;;;;;;12.47;7.80;;;2.20;99.90;;;;;;5002549;28;20203;-58
2022/01/31 10:20:10;;;;;;;10.23;7.37;;;2.20;99.90;;;;;;5000871;28;20189;-55
2022/01/31 10:22:38;;;;;;;10.20;7.47;;;2.20;99.90;;;;;;5000334;28;20637;-59
2022/01/31 10:25:08;;;;;;;8.70;7.23;;;2.20;99.90;;;;;;5001948;28;20177;-58
2022/01/31 10:27:36;;;;;;;9.20;6.77;;;2.20;99.90;;;;;;5001434;28;20180;-54
2022/01/31 10:30:24;;;;;;;12.03;7.43;;;2.20;99.90;;;;;;4999577;28;20578;-57
2022/01/31 10:32:51;;;;;;;13.60;6.80;;;2.20;99.90;;;;;;5001101;28;20174;-60
2022/01/31 10:35:25;;;;;;;8.13;6.20;;;2.20;99.90;;;;;;4999875;28;20234;-57
2022/01/31 10:38:04;;;;;;;8.03;6.03;;;2.40;99.90;;;;;;5001059;28;20180;-54
2022/01/31 10:51:58;;;;;;;7.60;5.07;;;2.10;99.90;;;;;;4999645;28;20756;-60
2022/01/31 10:54:39;;;;;;;7.93;4.90;;;2.00;99.90;;;;;;5000113;28;20201;-55
2022/01/31 10:57:15;;;;;;;7.97;5.10;;;2.10;99.90;;;;;;4999202;28;20252;-58
2022/01/31 10:59:47;;;;;;;8.60;5.10;;;2.10;99.90;;;;;;5001633;28;20164;-59
2022/01/31 11:02:22;;;;;;;7.30;5.00;;;2.10;99.90;;;;;;5001300;28;20585;-57
2022/01/31 11:04:49;;;;;;;9.57;5.37;;;2.00;99.90;;;;;;5000369;28;20562;-58
2022/01/31 11:07:21;;;;;;;6.60;4.70;;;2.00;99.90;;;;;;5000099;28;20164;-55
2022/01/31 11:09:49;;;;;;;7.23;5.40;;;2.00;99.90;;;;;;5000014;28;20618;-61
2022/01/31 11:12:15;;;;;;;10.77;5.20;;;2.00;99.90;;;;;;4995238;28;20177;-60
2022/01/31 11:14:43;;;;;;;7.43;5.00;;;1.90;99.90;;;;;;4991905;28;20201;-58
2022/01/31 11:17:11;;;;;;;6.70;4.37;;;2.00;99.90;;;;;;4992007;28;20173;-58
2022/01/31 11:19:39;;;;;;;6.40;4.20;;;1.90;99.90;;;;;;4991783;28;20177;-59
2022/01/31 11:22:07;;;;;;;6.40;4.20;;;2.00;99.90;;;;;;4976323;28;20169;-58
2022/01/31 11:24:46;;;;;;;4.57;3.33;;;2.10;99.90;;;;;;4995814;28;20280;-57
2022/01/31 11:27:15;;;;;;;3.80;3.20;;;2.20;99.90;;;;;;4995927;28;20539;-61
2022/01/31 11:29:44;;;;;;;4.27;3.30;;;2.30;99.90;;;;;;4995434;28;20678;-61
2022/01/31 11:32:10;;;;;;;4.63;3.40;;;2.40;99.90;;;;;;4995731;28;20831;-59
2022/01/31 11:34:39;;;;;;;3.93;3.00;;;2.40;99.90;;;;;;4995463;28;20654;-58
2022/01/31 11:37:11;;;;;;;5.37;3.30;;;2.40;99.90;;;;;;4995924;28;20173;-60
2022/01/31 11:39:42;;;;;;;3.10;2.70;;;2.40;99.90;;;;;;4995749;28;20162;-59
2022/01/31 11:42:10;;;;;;;4.70;3.00;;;2.50;99.90;;;;;;4995871;28;20205;-60
2022/01/31 11:44:44;;;;;;;4.37;2.87;;;2.60;99.90;;;;;;4995632;28;20173;-55
2022/01/31 11:47:11;;;;;;;2.97;2.30;;;2.70;99.90;;;;;;4995621;28;20673;-57
2022/01/31 11:49:47;;;;;;;3.13;2.63;;;2.80;99.90;;;;;;4995305;28;20761;-56
2022/01/31 11:52:13;;;;;;;4.07;2.33;;;2.90;99.90;;;;;;4995429;28;20172;-54
2022/01/31 11:55:09;;;;;;;4.83;2.97;;;3.00;99.90;;;;;;4995133;28;20201;-56
2022/01/31 11:57:37;;;;;;;3.17;2.50;;;3.00;99.90;;;;;;4993872;28;20243;-56
2022/01/31 12:00:09;;;;;;;4.70;2.50;;;3.10;99.90;;;;;;4995080;28;20189;-56
2022/01/31 12:02:51;;;;;;;2.70;2.50;;;3.10;99.90;;;;;;4995271;28;20331;-58
2022/01/31 12:05:20;;;;;;;4.83;2.77;;;3.20;99.90;;;;;;4995224;28;20265;-60
2022/01/31 12:08:14;;;;;;;3.10;2.00;;;3.20;99.90;;;;;;4995088;28;20670;-56
2022/01/31 12:10:46;;;;;;;3.27;2.27;;;3.10;99.90;;;;;;4995095;28;20258;-53
2022/01/31 12:13:46;;;;;;;3.17;2.43;;;3.10;99.90;;;;;;4995224;28;20304;-53
2022/01/31 12:20:02;;;;;;;2.63;1.90;;;3.10;99.90;;;;;;4953768;29;20245;-55
2022/01/31 12:22:45;;;;;;;4.50;2.50;;;3.10;99.90;;;;;;4951839;29;20213;-57
2022/01/31 12:25:41;;;;;;;2.53;2.33;;;3.10;99.90;;;;;;4953814;29;20198;-58
2022/01/31 12:28:38;;;;;;;2.80;2.47;;;3.20;99.90;;;;;;4953655;29;20174;-54
2022/01/31 12:31:29;;;;;;;3.77;2.20;;;3.20;99.90;;;;;;4954899;29;20229;-56
2022/01/31 12:33:55;;;;;;;2.87;2.63;;;3.20;99.90;;;;;;4952584;28;20229;-55
2022/01/31 12:36:36;;;;;;;2.63;2.20;;;3.20;99.90;;;;;;4953506;29;20250;-54
2022/01/31 12:39:04;;;;;;;2.53;2.23;;;3.30;99.90;;;;;;4937286;29;20660;-54
2022/01/31 12:41:32;;;;;;;2.60;2.40;;;3.40;99.90;;;;;;4953420;29;20896;-54
2022/01/31 12:44:25;;;;;;;2.43;2.20;;;3.50;99.90;;;;;;4953263;29;20585;-54
2022/01/31 12:46:51;;;;;;;3.50;2.50;;;3.20;99.90;;;;;;4952858;29;20193;-57
2022/01/31 12:49:17;;;;;;;2.10;1.90;;;3.50;99.90;;;;;;4953418;29;20183;-55
2022/01/31 12:52:00;;;;;;;4.03;2.37;;;3.50;99.90;;;;;;4953483;29;20230;-58
2022/01/31 12:54:26;;;;;;;2.97;2.30;;;3.40;99.90;;;;;;4953261;29;20222;-57
2022/01/31 12:57:00;;;;;;;3.73;2.20;;;3.50;99.90;;;;;;4991351;28;20183;-55
2022/01/31 12:59:26;;;;;;;3.70;2.60;;;3.50;99.90;;;;;;4994088;28;20203;-58
2022/01/31 13:01:52;;;;;;;3.00;2.30;;;3.50;99.90;;;;;;4994111;28;20228;-58
2022/01/31 13:04:27;;;;;;;3.80;2.57;;;3.60;99.90;;;;;;4994154;28;20189;-57
2022/01/31 13:07:01;;;;;;;2.30;2.10;;;3.50;99.90;;;;;;4994014;28;20248;-58
2022/01/31 13:09:32;;;;;;;2.50;2.07;;;3.60;99.90;;;;;;4993907;28;20590;-55
2022/01/31 13:12:06;;;;;;;2.40;2.20;;;3.70;99.90;;;;;;4994011;28;20193;-57
2022/01/31 13:14:35;;;;;;;2.93;1.63;;;3.70;99.90;;;;;;4993735;28;20264;-58
2022/01/31 13:17:11;;;;;;;3.20;2.00;;;3.60;99.90;;;;;;4992930;28;20436;-54
2022/01/31 13:19:40;;;;;;;1.90;1.80;;;3.70;99.90;;;;;;4991834;28;20255;-55
2022/01/31 13:22:24;;;;;;;2.80;1.93;;;3.70;99.90;;;;;;4993946;28;20227;-57
2022/01/31 13:24:54;;;;;;;2.93;1.80;;;3.70;99.90;;;;;;4993549;28;20239;-58
2022/01/31 13:27:37;;;;;;;2.93;1.80;;;3.70;99.90;;;;;;4993655;28;20542;-59
2022/01/31 13:30:08;;;;;;;2.10;1.60;;;3.70;99.90;;;;;;4993400;28;20232;-57